Weather History for KALX - March, 2013

Change the Weather History Date:

Monday, March 25, 2013

  Actual Average (KAUO) Record (KAUO)
Temperature  
Mean Temperature 46 °F -  
Max Temperature 54 °F - - ()
Min Temperature 37 °F - - ()
Degree Days  
Heating Degree Days 20    
Month to date heating degree days  
Since 1 July heating degree days  
Cooling Degree Days 0    
Month to date cooling degree days  
Year to date cooling degree days  
Moisture  
Dew Point 22 °F    
Average Humidity 42    
Maximum Humidity 58    
Minimum Humidity 25    
Precipitation  
Precipitation 0.00 in - - ()
Month to date precipitation  
Year to date precipitation  
Sea Level Pressure  
Sea Level Pressure 29.98 in    
Wind  
Wind Speed 12 mph (WNW)    
Max Wind Speed 18 mph    
Max Gust Speed 33 mph    
Visibility 10 miles    
Events      
T = Trace of Precipitation, MM = Missing Value Source: NWS Daily Summary

Daily Weather History Graph

Daily Weather History Graph

Search for Another Location

Airport or City:

Trip Planner

Search our weather history database for the weather conditions in past years. The results will help you decide how hot, cold, wet, or windy it might be!

Date:

Astronomy

Mar. 25, 2013 Rise Set
Actual Time 6:40 AM CDT 6:59 PM CDT
Civil Twilight 6:15 AM CDT 7:23 PM CDT
Nautical Twilight 5:47 AM CDT 7:52 PM CDT
Astronomical Twilight 5:17 AM CDT 8:22 PM CDT
Moon 5:33 PM CDT (3/25) 5:19 AM CDT (3/25)
Length of Visible Light 13h 08m
Length of Day
12h 18m
Waxing Gibbous, 96% of the Moon is Illuminated
Mar 25
Waxing Gibbous
Mar 27
Full
Apr 2
Last Quarter
Apr 10
New
Apr 18
First Quarter

Hourly Weather History & Observations

Time (CDT) Temp. Windchill Dew Point Humidity Pressure Visibility Wind Dir Wind Speed Gust Speed Precip Events Conditions
12:15 AM 44.6 °F 37.8 °F 27.0 °F 50% 29.83 in 10.0 mi WNW 15.0 mph 25.3 mph N/A   Overcast
12:35 AM 44.6 °F 38.8 °F 27.0 °F 50% 29.83 in 10.0 mi NW 11.5 mph 21.9 mph N/A   Overcast
12:55 AM 44.6 °F 40.7 °F 27.9 °F 52% 29.83 in 10.0 mi WNW 6.9 mph 16.1 mph N/A   Overcast
1:15 AM 44.6 °F 39.7 °F 28.2 °F 53% 29.84 in 10.0 mi West 9.2 mph 17.3 mph N/A   Overcast
1:35 AM 44.6 °F 38.4 °F 28.8 °F 54% 29.84 in 10.0 mi WNW 12.7 mph 20.7 mph N/A   Overcast
1:55 AM 43.7 °F 37.7 °F 28.2 °F 54% 29.85 in 10.0 mi WNW 11.5 mph 23.0 mph N/A   Overcast
2:15 AM 43.5 °F 38.3 °F 27.3 °F 53% 29.85 in 10.0 mi WNW 9.2 mph 19.6 mph N/A   Overcast
2:35 AM 43.3 °F 36.8 °F 27.1 °F 53% 29.86 in 10.0 mi WNW 12.7 mph 18.4 mph N/A   Overcast
2:55 AM 43.2 °F 36.2 °F 27.5 °F 54% 29.86 in 10.0 mi WNW 13.8 mph 23.0 mph N/A   Overcast
3:15 AM 42.8 °F 38.6 °F 27.1 °F 54% 29.86 in 10.0 mi NW 6.9 mph 16.1 mph N/A   Overcast
3:35 AM 42.1 °F 35.7 °F 25.9 °F 53% 29.87 in 10.0 mi NW 11.5 mph 18.4 mph N/A   Overcast
3:55 AM 42.1 °F 33.6 °F 22.8 °F 46% 29.88 in 10.0 mi WNW 18.4 mph 33.4 mph N/A   Overcast
4:15 AM 42.1 °F 34.9 °F 24.1 °F 49% 29.88 in 10.0 mi WNW 13.8 mph 20.7 mph N/A   Overcast
4:35 AM 41.0 °F 34.3 °F 23.7 °F 50% 29.88 in 10.0 mi WNW 11.5 mph 20.7 mph N/A   Overcast
4:55 AM 41.0 °F 32.8 °F 23.4 °F 50% 29.88 in 10.0 mi WNW 16.1 mph 21.9 mph N/A   Mostly Cloudy
5:15 AM 40.1 °F 32.7 °F 22.1 °F 49% 29.89 in 10.0 mi West 12.7 mph 20.7 mph N/A   Mostly Cloudy
5:35 AM 39.6 °F 32.5 °F 21.7 °F 49% 29.89 in 10.0 mi WNW 11.5 mph 21.9 mph N/A   Scattered Clouds
5:55 AM 39.6 °F 34.7 °F 23.0 °F 52% 29.89 in 10.0 mi WNW 6.9 mph - N/A   Clear
6:15 AM 39.6 °F 34.7 °F 24.8 °F 56% 29.90 in 10.0 mi WNW 6.9 mph - N/A   Scattered Clouds
6:35 AM 39.4 °F 34.5 °F 25.5 °F 58% 29.90 in 10.0 mi West 6.9 mph - N/A   Clear
6:55 AM 37.4 °F 32.1 °F 23.9 °F 58% 29.91 in 10.0 mi West 6.9 mph - N/A   Clear
7:15 AM 37.8 °F 31.8 °F 23.5 °F 57% 29.92 in 10.0 mi WNW 8.1 mph - N/A   Clear
7:35 AM 39.6 °F 33.0 °F 24.1 °F 54% 29.93 in 10.0 mi WNW 10.4 mph 16.1 mph N/A   Clear
7:55 AM 39.6 °F 33.5 °F 23.0 °F 52% 29.94 in 10.0 mi WNW 9.2 mph 20.7 mph N/A   Clear
8:15 AM 39.6 °F 32.5 °F 22.3 °F 50% 29.95 in 10.0 mi West 11.5 mph 17.3 mph N/A   Clear
8:35 AM 40.6 °F 33.4 °F 22.5 °F 48% 29.96 in 10.0 mi WNW 12.7 mph 21.9 mph N/A   Scattered Clouds
8:55 AM 41.2 °F 34.1 °F 23.2 °F 49% 29.97 in 10.0 mi WNW 12.7 mph 26.5 mph N/A   Scattered Clouds
9:15 AM 41.4 °F 34.7 °F 22.5 °F 47% 29.98 in 10.0 mi WNW 11.5 mph 23.0 mph N/A   Scattered Clouds
9:35 AM 42.1 °F 34.9 °F 23.5 °F 48% 29.99 in 10.0 mi NW 13.8 mph 18.4 mph N/A   Scattered Clouds
9:55 AM 43.2 °F 37.0 °F 23.7 °F 46% 29.99 in 10.0 mi West 11.5 mph 20.7 mph N/A   Scattered Clouds
10:15 AM 43.3 °F 37.7 °F 24.1 °F 47% 30.00 in 10.0 mi WNW 10.4 mph 16.1 mph N/A   Scattered Clouds
10:35 AM 43.9 °F 37.5 °F 21.7 °F 41% 30.00 in 10.0 mi WNW 12.7 mph 24.2 mph N/A   Scattered Clouds
10:55 AM 47.1 °F - 23.4 °F 39% 30.00 in 10.0 mi WNW 15.0 mph 21.9 mph N/A   Clear
11:15 AM 47.3 °F - 23.4 °F 39% 30.00 in 10.0 mi West 16.1 mph 25.3 mph N/A   Scattered Clouds
11:35 AM 49.6 °F - 24.8 °F 38% 30.00 in 10.0 mi West 17.3 mph 21.9 mph N/A   Scattered Clouds
11:55 AM 49.6 °F - 23.5 °F 36% 29.99 in 10.0 mi WNW 15.0 mph 23.0 mph N/A   Clear
12:15 PM 49.6 °F - 23.9 °F 37% 29.99 in 10.0 mi West 16.1 mph 23.0 mph N/A   Scattered Clouds
12:35 PM 49.6 °F - 21.4 °F 33% 29.98 in 10.0 mi WNW 16.1 mph 24.2 mph N/A   Clear
12:55 PM 49.6 °F - 20.7 °F 32% 29.98 in 10.0 mi West 11.5 mph 25.3 mph N/A   Clear
1:15 PM 49.6 °F - 19.4 °F 30% 29.97 in 10.0 mi WNW 13.8 mph 21.9 mph N/A   Clear
1:35 PM 50.0 °F - 19.2 °F 30% 29.97 in 10.0 mi West 17.3 mph 26.5 mph N/A   Clear
1:55 PM 51.8 °F - 21.0 °F 30% 29.97 in 10.0 mi WNW 16.1 mph 21.9 mph N/A   Clear
2:15 PM 52.2 °F - 19.8 °F 28% 29.97 in 10.0 mi WNW 13.8 mph 24.2 mph N/A   Scattered Clouds
2:35 PM 51.3 °F - 18.5 °F 27% 29.97 in 10.0 mi West 16.1 mph 28.8 mph N/A   Clear
2:55 PM 52.2 °F - 18.3 °F 26% 29.97 in 10.0 mi WNW 17.3 mph 28.8 mph N/A   Clear
3:15 PM 52.2 °F - 18.3 °F 26% 29.97 in 10.0 mi WNW 13.8 mph 21.9 mph N/A   Scattered Clouds
3:35 PM 52.9 °F - 18.7 °F 26% 29.97 in 10.0 mi WNW 16.1 mph 32.2 mph N/A   Scattered Clouds
3:55 PM 54.7 °F - 19.4 °F 25% 29.98 in 10.0 mi West 16.1 mph 25.3 mph N/A   Scattered Clouds
4:15 PM 52.2 °F - 17.6 °F 26% 29.98 in 10.0 mi NW 15.0 mph 27.6 mph N/A   Clear
4:35 PM 52.2 °F - 18.0 °F 26% 29.98 in 10.0 mi NW 13.8 mph 21.9 mph N/A   Clear
4:55 PM 53.6 °F - 19.8 °F 27% 29.99 in 10.0 mi NW 16.1 mph 24.2 mph N/A   Scattered Clouds
5:15 PM 50.5 °F - 17.2 °F 27% 30.00 in 10.0 mi NW 13.8 mph 20.7 mph N/A   Scattered Clouds
5:35 PM 49.6 °F - 18.0 °F 29% 30.01 in 10.0 mi WNW 12.7 mph 20.7 mph N/A   Scattered Clouds
5:55 PM 49.6 °F - 19.2 °F 30% 30.02 in 10.0 mi NW 10.4 mph 21.9 mph N/A   Scattered Clouds
6:15 PM 49.6 °F - 19.2 °F 30% 30.03 in 10.0 mi WNW 12.7 mph 27.6 mph N/A   Scattered Clouds
6:35 PM 48.6 °F - 19.9 °F 32% 30.04 in 10.0 mi NW 15.0 mph 28.8 mph N/A   Scattered Clouds
6:55 PM 47.3 °F - 20.7 °F 35% 30.05 in 10.0 mi NW 13.8 mph 19.6 mph N/A   Scattered Clouds
7:15 PM 44.6 °F 38.1 °F 19.8 °F 37% 30.07 in 10.0 mi NW 13.8 mph 18.4 mph N/A   Clear
7:35 PM 43.3 °F 37.7 °F 18.1 °F 36% 30.08 in 10.0 mi WNW 10.4 mph 17.3 mph N/A   Clear
7:55 PM 42.8 °F 35.8 °F 16.5 °F 35% 30.09 in 10.0 mi WNW 13.8 mph 20.7 mph N/A   Clear
8:15 PM 42.1 °F 36.6 °F 16.5 °F 36% 30.10 in 10.0 mi WNW 9.2 mph - N/A   Clear
8:35 PM 42.1 °F 36.1 °F 17.4 °F 37% 30.11 in 10.0 mi NW 10.4 mph - N/A   Clear
8:55 PM 41.2 °F 36.6 °F 17.4 °F 38% 30.12 in 10.0 mi NW 6.9 mph - N/A   Scattered Clouds
9:15 PM 41.0 °F 35.2 °F 18.5 °F 40% 30.13 in 10.0 mi WNW 9.2 mph - N/A   Scattered Clouds
9:35 PM 40.8 °F 35.6 °F 18.7 °F 41% 30.14 in 10.0 mi WNW 8.1 mph - N/A   Clear
9:55 PM 39.6 °F 34.7 °F 18.5 °F 43% 30.15 in 10.0 mi NW 6.9 mph - N/A   Clear
10:15 PM 39.6 °F 35.4 °F 19.2 °F 44% 30.16 in 10.0 mi WNW 5.8 mph - N/A   Clear
10:35 PM 39.6 °F 34.0 °F 19.9 °F 45% 30.15 in 10.0 mi WNW 8.1 mph - N/A   Clear
10:55 PM 39.6 °F 34.7 °F 20.3 °F 46% 30.15 in 10.0 mi WNW 6.9 mph - N/A   Clear
11:15 PM 39.6 °F 34.7 °F 21.4 °F 48% 30.15 in 10.0 mi WNW 6.9 mph - N/A   Clear
11:35 PM 39.2 °F 34.2 °F 22.1 °F 50% 30.15 in 10.0 mi WNW 6.9 mph - N/A   Clear
11:55 PM 37.6 °F 33.1 °F 21.7 °F 53% 30.15 in 10.0 mi WNW 5.8 mph - N/A   Clear